Time;durP1;ratioP1;P1;durP2;ratioP2;P2;SDS_P1;SDS_P2;PMS_P1;PMS_P2;Temp;Humidity;BMP_temperature;BMP_pressure;BME280_temperature;BME280_humidity;BME280_pressure;Samples;Min_cycle;Max_cycle;Signal;HPM_P1;HPM_P2
2022/08/30 00:02:36;;;;;;;;;;;19.90;93.20;;;;;;5025906;28;20202;-67
2022/08/30 00:05:04;;;;;;;;;;;20.00;95.60;;;;;;5026708;28;20199;-65
2022/08/30 00:07:32;;;;;;;;;;;20.10;92.90;;;;;;5026153;28;20938;-65
2022/08/30 00:10:00;;;;;;;;;;;20.10;94.50;;;;;;5027212;28;20200;-65
2022/08/30 00:12:31;;;;;;;;;;;20.20;93.10;;;;;;5026536;28;20124;-65
2022/08/30 00:14:59;;;;;;;;;;;20.30;94.00;;;;;;5022121;28;20629;-64
2022/08/30 00:17:27;;;;;;;;;;;20.30;93.90;;;;;;5025654;28;20209;-65
2022/08/30 00:19:56;;;;;;;;;;;20.10;93.80;;;;;;5029993;28;20080;-64
2022/08/30 00:22:24;;;;;;;;;;;19.90;92.90;;;;;;5021539;28;20195;-65
2022/08/30 00:24:51;;;;;;;;;;;19.70;93.50;;;;;;5028815;28;20222;-64
2022/08/30 00:27:19;;;;;;;;;;;19.60;93.90;;;;;;5023634;28;20269;-64
2022/08/30 00:29:48;;;;;;;;;;;19.40;94.10;;;;;;5027318;28;20154;-64
2022/08/30 00:32:16;;;;;;;;;;;19.40;94.20;;;;;;5028551;28;20099;-64
2022/08/30 00:34:44;;;;;;;;;;;19.30;94.40;;;;;;5019882;28;20184;-63
2022/08/30 00:37:12;;;;;;;;;;;19.20;94.00;;;;;;5020147;28;20208;-65
2022/08/30 00:39:40;;;;;;;;;;;19.10;95.20;;;;;;5025974;28;20099;-65
2022/08/30 00:42:07;;;;;;;;;;;19.00;95.10;;;;;;5025507;28;25069;-65
2022/08/30 00:44:35;;;;;;;;;;;19.10;95.90;;;;;;5024835;28;20222;-64
2022/08/30 00:47:05;;;;;;;;;;;19.10;94.40;;;;;;5025478;28;20759;-65
2022/08/30 00:49:33;;;;;;;;;;;19.00;94.70;;;;;;5025621;28;20240;-65
2022/08/30 00:52:01;;;;;;;;;;;18.90;94.40;;;;;;5030318;28;20204;-65
2022/08/30 00:54:33;;;;;;;;;;;18.80;94.80;;;;;;5026546;28;20265;-65
2022/08/30 00:57:00;;;;;;;;;;;18.70;94.90;;;;;;5030458;28;25087;-65
2022/08/30 00:59:29;;;;;;;;;;;18.70;95.50;;;;;;5028198;28;20751;-65
2022/08/30 01:01:56;;;;;;;;;;;18.70;95.00;;;;;;5023723;28;21275;-64
2022/08/30 01:04:26;;;;;;;;;;;18.60;95.90;;;;;;5023067;28;20222;-63
2022/08/30 01:06:54;;;;;;;;;;;18.60;95.20;;;;;;5024178;28;20680;-62
2022/08/30 01:09:22;;;;;;;;;;;18.60;95.70;;;;;;5023393;28;25073;-64
2022/08/30 01:11:50;;;;;;;;;;;18.70;95.80;;;;;;5025137;28;20718;-65
2022/08/30 01:14:20;;;;;;;;;;;18.70;95.50;;;;;;5025149;28;20773;-61
2022/08/30 01:16:54;;;;;;;;;;;18.70;95.30;;;;;;5025878;28;20200;-64
2022/08/30 01:19:29;;;;;;;;;;;18.70;96.30;;;;;;5030686;28;20699;-64
2022/08/30 01:22:01;;;;;;;;;;;19.00;95.30;;;;;;5025009;28;20588;-63
2022/08/30 01:24:31;;;;;;;;;;;19.10;96.60;;;;;;5026526;28;20098;-63
2022/08/30 01:26:59;;;;;;;;;;;19.30;95.10;;;;;;5025170;28;20769;-64
2022/08/30 01:29:28;;;;;;;;;;;19.50;94.80;;;;;;5027218;28;20134;-63
2022/08/30 01:31:55;;;;;;;;;;;19.60;95.30;;;;;;5024831;28;24846;-64
2022/08/30 01:34:24;;;;;;;;;;;19.70;95.20;;;;;;5020057;28;20138;-65
2022/08/30 01:36:52;;;;;;;;;;;20.00;95.30;;;;;;5021980;28;20202;-64
2022/08/30 01:39:20;;;;;;;;;;;20.10;94.30;;;;;;5028645;28;20212;-64
2022/08/30 01:41:49;;;;;;;;;;;19.90;93.80;;;;;;5027466;28;20191;-65
2022/08/30 01:44:16;;;;;;;;;;;19.60;94.60;;;;;;5012407;28;20211;-64
2022/08/30 01:46:45;;;;;;;;;;;19.30;94.80;;;;;;5025836;28;20663;-65
2022/08/30 01:49:14;;;;;;;;;;;19.30;94.70;;;;;;5027182;28;20203;-64
2022/08/30 01:51:42;;;;;;;;;;;19.10;94.80;;;;;;5025511;28;20092;-64
2022/08/30 01:54:10;;;;;;;;;;;18.90;95.20;;;;;;5027261;28;20780;-64
2022/08/30 01:56:38;;;;;;;;;;;18.80;96.40;;;;;;5021227;28;25072;-65
2022/08/30 01:59:07;;;;;;;;;;;18.90;96.00;;;;;;5025084;28;20617;-66
2022/08/30 02:01:38;;;;;;;;;;;18.90;95.50;;;;;;5025540;28;20211;-64
2022/08/30 02:04:06;;;;;;;;;;;18.80;96.10;;;;;;5025499;28;20223;-67
2022/08/30 02:06:34;;;;;;;;;;;18.70;95.60;;;;;;5027013;28;20197;-64
2022/08/30 02:09:02;;;;;;;;;;;18.80;96.10;;;;;;5025374;28;20870;-64
2022/08/30 02:11:30;;;;;;;;;;;18.80;96.30;;;;;;5025380;28;20202;-64
2022/08/30 02:13:58;;;;;;;;;;;19.10;96.30;;;;;;5024321;28;20583;-64
2022/08/30 02:16:27;;;;;;;;;;;19.10;95.60;;;;;;5030242;28;20247;-64
2022/08/30 02:18:55;;;;;;;;;;;19.20;95.40;;;;;;5028182;28;20201;-64
2022/08/30 02:21:24;;;;;;;;;;;19.10;95.20;;;;;;5031365;28;20217;-64
2022/08/30 02:23:52;;;;;;;;;;;19.20;95.50;;;;;;5026327;28;20128;-64
2022/08/30 02:26:20;;;;;;;;;;;19.10;95.40;;;;;;5027111;28;21185;-65
2022/08/30 02:28:48;;;;;;;;;;;19.20;95.90;;;;;;5027284;28;20572;-64
2022/08/30 02:31:17;;;;;;;;;;;19.30;95.30;;;;;;5024292;28;20696;-63
2022/08/30 02:33:50;;;;;;;;;;;19.20;95.50;;;;;;5026866;28;25064;-64
2022/08/30 02:36:18;;;;;;;;;;;19.40;96.20;;;;;;5027832;28;20072;-64
2022/08/30 02:38:46;;;;;;;;;;;19.70;95.60;;;;;;5031132;28;20224;-63
2022/08/30 02:41:14;;;;;;;;;;;19.90;95.40;;;;;;5030975;28;20195;-64
2022/08/30 02:43:41;;;;;;;;;;;20.10;95.20;;;;;;5025430;28;20299;-64
2022/08/30 02:46:09;;;;;;;;;;;20.10;94.40;;;;;;5029308;28;20260;-64
2022/08/30 02:48:37;;;;;;;;;;;20.00;95.30;;;;;;5024771;28;20275;-64
2022/08/30 02:51:07;;;;;;;;;;;19.70;95.00;;;;;;5022903;28;20722;-64
2022/08/30 02:53:38;;;;;;;;;;;19.70;94.80;;;;;;5021794;28;20244;-63
2022/08/30 02:56:06;;;;;;;;;;;19.30;95.00;;;;;;5027919;28;20703;-63
2022/08/30 02:58:34;;;;;;;;;;;19.10;95.50;;;;;;5026198;28;20146;-64
2022/08/30 03:01:02;;;;;;;;;;;18.70;95.40;;;;;;5026139;28;21128;-64
2022/08/30 03:03:30;;;;;;;;;;;18.70;95.90;;;;;;5026857;28;25077;-63
2022/08/30 03:05:58;;;;;;;;;;;18.50;96.20;;;;;;5029075;28;20304;-64
2022/08/30 03:08:27;;;;;;;;;;;18.50;96.40;;;;;;5025238;28;20140;-65
2022/08/30 03:10:55;;;;;;;;;;;18.40;96.50;;;;;;5027217;28;20262;-65
2022/08/30 03:13:23;;;;;;;;;;;18.30;96.80;;;;;;5028786;28;20296;-64
2022/08/30 03:15:51;;;;;;;;;;;18.20;97.10;;;;;;5020625;28;20705;-64
2022/08/30 03:18:19;;;;;;;;;;;18.10;97.30;;;;;;5030472;28;20159;-63
2022/08/30 03:20:47;;;;;;;;;;;18.00;97.80;;;;;;5025212;28;25083;-63
2022/08/30 03:23:21;;;;;;;;;;;18.00;97.60;;;;;;5022532;28;20085;-61
2022/08/30 03:25:52;;;;;;;;;;;18.10;98.10;;;;;;5028128;28;20849;-62
2022/08/30 03:28:20;;;;;;;;;;;18.10;98.10;;;;;;5029438;28;20235;-63
2022/08/30 03:30:48;;;;;;;;;;;18.00;97.90;;;;;;5029162;28;20284;-63
2022/08/30 03:33:15;;;;;;;;;;;17.90;98.10;;;;;;5029889;28;25074;-63
2022/08/30 03:35:46;;;;;;;;;;;18.10;98.70;;;;;;5028847;28;20708;-63
2022/08/30 03:38:14;;;;;;;;;;;18.30;97.70;;;;;;5025682;28;20433;-65
2022/08/30 03:40:42;;;;;;;;;;;18.30;98.20;;;;;;5027313;28;20028;-63
2022/08/30 03:43:11;;;;;;;;;;;18.30;98.00;;;;;;5025855;28;20666;-64
2022/08/30 03:45:39;;;;;;;;;;;18.30;97.80;;;;;;5057003;23;20868;-63
2022/08/30 03:48:07;;;;;;;;;;;18.30;98.10;;;;;;5049894;28;21104;-63
2022/08/30 03:50:35;;;;;;;;;;;18.40;99.00;;;;;;5041228;28;21194;-63
2022/08/30 03:53:03;;;;;;;;;;;18.50;98.10;;;;;;5044168;28;20930;-63
2022/08/30 03:55:31;;;;;;;;;;;18.50;98.10;;;;;;5043229;28;20554;-62
2022/08/30 03:57:59;;;;;;;;;;;18.40;98.00;;;;;;5046125;28;25090;-62
2022/08/30 04:00:28;;;;;;;;;;;18.20;98.30;;;;;;5045965;28;20685;-63
2022/08/30 04:02:55;;;;;;;;;;;18.10;98.50;;;;;;5045637;28;20170;-62
2022/08/30 04:05:23;;;;;;;;;;;17.90;99.00;;;;;;5048082;28;22327;-63
2022/08/30 04:07:51;;;;;;;;;;;17.90;99.00;;;;;;5043561;28;20157;-63
2022/08/30 04:10:20;;;;;;;;;;;18.10;99.30;;;;;;5042868;28;21439;-63
2022/08/30 04:12:48;;;;;;;;;;;18.30;99.00;;;;;;5049060;28;25089;-63
2022/08/30 04:15:17;;;;;;;;;;;18.30;99.10;;;;;;5043096;28;20627;-62
2022/08/30 04:17:46;;;;;;;;;;;18.20;98.80;;;;;;5048654;28;20395;-63
2022/08/30 04:20:14;;;;;;;;;;;18.00;99.10;;;;;;5045508;28;20725;-63
2022/08/30 04:22:42;;;;;;;;;;;17.80;99.70;;;;;;5040833;28;20375;-62
2022/08/30 04:25:10;;;;;;;;;;;17.90;99.90;;;;;;5043708;28;20759;-63
2022/08/30 04:27:42;;;;;;;;;;;17.80;99.80;;;;;;5059066;28;20812;-62
2022/08/30 04:30:11;;;;;;;;;;;17.90;99.90;;;;;;5044806;28;20879;-62
2022/08/30 04:32:38;;;;;;;;;;;17.90;99.90;;;;;;5044513;28;20751;-63
2022/08/30 04:35:08;;;;;;;;;;;17.80;99.90;;;;;;5046030;28;25151;-63
2022/08/30 04:37:36;;;;;;;;;;;17.90;99.90;;;;;;5047708;28;20220;-63
2022/08/30 04:40:05;;;;;;;;;;;17.80;99.90;;;;;;5043247;28;20847;-63
2022/08/30 04:42:34;;;;;;;;;;;17.90;99.90;;;;;;5035102;28;20146;-63
2022/08/30 04:45:04;;;;;;;;;;;17.80;99.90;;;;;;5035789;28;20143;-63
2022/08/30 04:47:32;;;;;;;;;;;17.70;99.90;;;;;;5038111;28;21046;-63
2022/08/30 04:50:00;;;;;;;;;;;17.80;99.90;;;;;;5037144;28;25076;-63
2022/08/30 04:52:29;;;;;;;;;;;17.70;99.90;;;;;;5036705;28;20614;-64
2022/08/30 04:54:58;;;;;;;;;;;17.70;99.90;;;;;;5040550;28;20079;-62
2022/08/30 04:57:26;;;;;;;;;;;17.60;99.90;;;;;;5037680;28;20255;-64
2022/08/30 04:59:54;;;;;;;;;;;17.50;99.90;;;;;;5035393;28;20621;-62
2022/08/30 05:02:22;;;;;;;;;;;17.40;99.90;;;;;;5035526;28;20707;-63
2022/08/30 05:07:38;;;;;;;;;;;17.60;99.90;;;;;;5039481;28;25207;-63
2022/08/30 05:10:06;;;;;;;;;;;17.70;99.90;;;;;;5035602;28;20177;-62
2022/08/30 05:12:38;;;;;;;;;;;17.70;99.90;;;;;;5038700;28;20143;-63
2022/08/30 05:15:06;;;;;;;;;;;17.70;99.90;;;;;;5038284;28;21175;-62
2022/08/30 05:17:34;;;;;;;;;;;17.60;99.90;;;;;;5040380;28;20673;-62
2022/08/30 05:20:02;;;;;;;;;;;17.60;99.90;;;;;;5039537;28;20791;-62
2022/08/30 05:22:30;;;;;;;;;;;17.70;99.90;;;;;;5035551;28;25087;-63
2022/08/30 05:24:59;;;;;;;;;;;17.70;99.90;;;;;;5034737;28;20086;-64
2022/08/30 05:27:27;;;;;;;;;;;17.70;99.90;;;;;;5036071;28;20544;-63
2022/08/30 05:29:55;;;;;;;;;;;17.80;99.90;;;;;;5036651;28;20246;-62
2022/08/30 05:32:23;;;;;;;;;;;17.80;99.90;;;;;;5037340;28;20718;-63
2022/08/30 05:34:51;;;;;;;;;;;18.20;99.90;;;;;;5037769;28;20216;-64
2022/08/30 05:37:19;;;;;;;;;;;18.40;99.90;;;;;;5037544;28;21158;-63
2022/08/30 05:39:46;;;;;;;;;;;18.70;99.90;;;;;;5037611;28;20131;-63
2022/08/30 05:42:19;;;;;;;;;;;18.80;99.90;;;;;;5035609;28;20351;-64
2022/08/30 05:44:50;;;;;;;;;;;18.80;99.90;;;;;;5035597;28;25134;-63
2022/08/30 05:47:18;;;;;;;;;;;18.70;99.90;;;;;;5039972;28;20187;-64
2022/08/30 05:49:46;;;;;;;;;;;18.60;99.90;;;;;;5042705;28;20228;-63
2022/08/30 05:52:16;;;;;;;;;;;18.50;99.90;;;;;;5040392;28;20216;-63
2022/08/30 05:54:44;;;;;;;;;;;18.60;99.90;;;;;;5042362;28;20233;-63
2022/08/30 05:57:12;;;;;;;;;;;18.60;99.90;;;;;;5037679;28;20213;-63
2022/08/30 05:59:41;;;;;;;;;;;18.50;99.90;;;;;;5040056;28;20109;-63
2022/08/30 06:02:09;;;;;;;;;;;18.40;99.90;;;;;;5040330;28;20068;-64
2022/08/30 06:04:37;;;;;;;;;;;18.20;99.90;;;;;;5043074;28;20250;-62
2022/08/30 06:07:05;;;;;;;;;;;18.10;99.90;;;;;;5042938;28;25084;-63
2022/08/30 06:09:32;;;;;;;;;;;18.00;99.90;;;;;;5040125;28;20099;-62
2022/08/30 06:12:00;;;;;;;;;;;17.90;99.90;;;;;;5038104;28;20221;-63
2022/08/30 06:14:28;;;;;;;;;;;17.90;99.90;;;;;;5040985;28;20203;-64
2022/08/30 06:16:57;;;;;;;;;;;17.90;99.90;;;;;;5038439;28;20773;-64
2022/08/30 06:19:25;;;;;;;;;;;17.90;99.90;;;;;;5038416;28;20732;-62
2022/08/30 06:21:53;;;;;;;;;;;18.00;99.90;;;;;;5040299;28;20221;-63
2022/08/30 06:24:20;;;;;;;;;;;18.10;99.90;;;;;;5041251;28;20212;-62
2022/08/30 06:27:09;;;;;;;;;;;18.10;99.90;;;;;;5037731;28;20210;-62
2022/08/30 06:29:37;;;;;;;;;;;18.20;99.90;;;;;;5039840;28;20883;-62
2022/08/30 06:32:06;;;;;;;;;;;18.30;99.90;;;;;;5040322;28;20210;-62
2022/08/30 06:34:34;;;;;;;;;;;18.30;99.90;;;;;;5041263;28;20200;-62
2022/08/30 06:37:02;;;;;;;;;;;18.50;99.90;;;;;;5050959;28;20198;-62
2022/08/30 06:39:29;;;;;;;;;;;18.60;99.90;;;;;;5041997;28;20206;-63
2022/08/30 06:41:57;;;;;;;;;;;18.80;99.90;;;;;;5047202;28;20273;-64
2022/08/30 06:44:25;;;;;;;;;;;18.90;99.90;;;;;;5044421;28;25009;-63
2022/08/30 06:46:53;;;;;;;;;;;18.90;99.90;;;;;;5046551;28;20118;-63
2022/08/30 06:49:22;;;;;;;;;;;19.00;99.90;;;;;;5041469;28;20831;-65
2022/08/30 06:51:50;;;;;;;;;;;19.00;99.90;;;;;;5045613;28;20223;-65
2022/08/30 06:54:18;;;;;;;;;;;19.00;99.90;;;;;;5046572;28;20208;-65
2022/08/30 06:56:46;;;;;;;;;;;19.10;99.90;;;;;;5043865;28;20252;-65
2022/08/30 06:59:30;;;;;;;;;;;19.30;99.90;;;;;;5047731;28;20285;-65
2022/08/30 07:01:58;;;;;;;;;;;19.40;99.90;;;;;;5042286;28;20297;-65
2022/08/30 07:04:27;;;;;;;;;;;19.60;99.90;;;;;;5042051;28;20191;-65
2022/08/30 07:06:55;;;;;;;;;;;19.70;99.90;;;;;;5048178;28;20093;-65
2022/08/30 07:09:23;;;;;;;;;;;19.80;99.90;;;;;;5046650;28;20508;-65
2022/08/30 07:11:51;;;;;;;;;;;19.80;99.90;;;;;;5042210;28;20612;-64
2022/08/30 07:14:19;;;;;;;;;;;19.90;99.90;;;;;;5048836;28;20188;-65
2022/08/30 07:16:47;;;;;;;;;;;19.90;99.90;;;;;;5045213;28;20182;-64
2022/08/30 07:19:17;;;;;;;;;;;20.10;99.90;;;;;;5049657;28;20206;-64
2022/08/30 07:21:49;;;;;;;;;;;20.20;99.90;;;;;;5041152;28;20201;-65
2022/08/30 07:24:17;;;;;;;;;;;20.40;99.90;;;;;;5039176;28;20194;-65
2022/08/30 07:26:47;;;;;;;;;;;20.60;99.90;;;;;;5040545;28;20203;-64
2022/08/30 07:29:15;;;;;;;;;;;20.70;99.90;;;;;;5039652;28;20211;-64
2022/08/30 07:31:43;;;;;;;;;;;20.80;99.90;;;;;;5039546;28;20607;-65
2022/08/30 07:34:11;;;;;;;;;;;21.00;99.90;;;;;;5041783;28;20624;-64
2022/08/30 07:36:39;;;;;;;;;;;21.00;99.70;;;;;;5043434;28;20194;-65
2022/08/30 07:39:08;;;;;;;;;;;21.10;99.40;;;;;;5041980;28;20717;-64
2022/08/30 07:41:37;;;;;;;;;;;21.10;99.20;;;;;;5043746;28;20206;-64
2022/08/30 07:44:05;;;;;;;;;;;21.10;99.50;;;;;;5041788;28;20623;-64
2022/08/30 07:46:34;;;;;;;;;;;21.20;99.30;;;;;;5044548;28;20580;-64
2022/08/30 07:49:02;;;;;;;;;;;21.30;99.50;;;;;;5043777;28;20078;-64
2022/08/30 07:51:31;;;;;;;;;;;21.50;99.50;;;;;;5043631;28;20149;-64
2022/08/30 07:53:59;;;;;;;;;;;21.60;98.80;;;;;;5042502;28;20693;-65
2022/08/30 07:56:28;;;;;;;;;;;21.70;98.70;;;;;;5042504;28;20214;-65
2022/08/30 07:58:56;;;;;;;;;;;21.70;98.00;;;;;;5048456;28;20222;-65
2022/08/30 08:01:24;;;;;;;;;;;21.80;98.40;;;;;;5042295;28;20810;-64
2022/08/30 08:03:51;;;;;;;;;;;21.90;98.00;;;;;;5045610;28;25122;-64
2022/08/30 08:06:45;;;;;;;;;;;22.00;98.30;;;;;;5046378;28;20249;-65
2022/08/30 08:09:12;;;;;;;;;;;22.30;98.80;;;;;;5044961;28;20235;-65
2022/08/30 08:11:42;;;;;;;;;;;22.50;98.90;;;;;;5038741;28;20121;-65
2022/08/30 08:14:09;;;;;;;;;;;22.60;98.30;;;;;;5042686;28;20693;-64
2022/08/30 08:16:38;;;;;;;;;;;22.80;98.40;;;;;;5034229;28;20353;-64
2022/08/30 08:19:07;;;;;;;;;;;22.90;97.00;;;;;;5039971;28;20207;-65
2022/08/30 08:21:36;;;;;;;;;;;22.80;97.10;;;;;;5039168;28;20296;-65
2022/08/30 08:24:04;;;;;;;;;;;22.70;97.30;;;;;;5037828;28;20293;-65
2022/08/30 08:26:33;;;;;;;;;;;22.70;96.80;;;;;;5038184;28;20238;-64
2022/08/30 08:29:03;;;;;;;;;;;22.70;96.60;;;;;;5040495;28;20238;-65
2022/08/30 08:31:30;;;;;;;;;;;23.00;96.40;;;;;;5039038;28;20563;-65
2022/08/30 08:34:01;;;;;;;;;;;23.10;96.10;;;;;;5043144;28;20291;-65
2022/08/30 08:36:30;;;;;;;;;;;23.30;95.80;;;;;;5040359;28;20175;-66
2022/08/30 08:38:58;;;;;;;;;;;23.40;95.70;;;;;;5042210;28;20076;-65
2022/08/30 08:41:31;;;;;;;;;;;23.50;95.30;;;;;;5043091;28;20207;-65
2022/08/30 08:43:59;;;;;;;;;;;23.50;95.20;;;;;;5042179;28;20198;-64
2022/08/30 08:46:30;;;;;;;;;;;23.70;95.40;;;;;;5040411;28;20206;-65
2022/08/30 08:49:01;;;;;;;;;;;23.60;95.20;;;;;;5039738;28;20207;-66
2022/08/30 08:54:21;;;;;;;;;;;23.70;94.70;;;;;;5042793;28;20350;-65
2022/08/30 08:56:48;;;;;;;;;;;23.70;94.60;;;;;;5043341;28;20756;-65
2022/08/30 08:59:17;;;;;;;;;;;24.00;94.60;;;;;;5041132;28;20215;-65
2022/08/30 09:01:46;;;;;;;;;;;24.20;94.60;;;;;;5045250;28;20194;-65
2022/08/30 09:04:17;;;;;;;;;;;24.40;94.30;;;;;;5035189;28;20570;-65
2022/08/30 09:06:52;;;;;;;;;;;24.50;93.70;;;;;;5042155;28;20198;-65
2022/08/30 09:09:21;;;;;;;;;;;24.50;94.00;;;;;;5035299;28;20954;-65
2022/08/30 09:11:49;;;;;;;;;;;24.50;93.70;;;;;;5043884;28;20202;-65
2022/08/30 09:14:19;;;;;;;;;;;24.50;93.30;;;;;;5041210;28;20206;-65
2022/08/30 09:16:50;;;;;;;;;;;24.70;93.50;;;;;;5042262;28;20213;-65
2022/08/30 09:19:29;;;;;;;;;;;24.90;93.20;;;;;;5040703;28;20209;-65
2022/08/30 09:22:02;;;;;;;;;;;25.20;93.10;;;;;;5033134;28;20206;-65
2022/08/30 09:24:36;;;;;;;;;;;25.20;92.60;;;;;;5038253;28;20195;-65
2022/08/30 09:27:18;;;;;;;;;;;25.40;92.80;;;;;;5036981;28;20202;-65
2022/08/30 09:30:01;;;;;;;;;;;25.60;92.60;;;;;;5043120;28;20218;-65
2022/08/30 09:32:32;;;;;;;;;;;25.90;92.10;;;;;;5040057;28;20629;-65
2022/08/30 09:35:00;;;;;;;;;;;25.80;92.40;;;;;;5041316;28;20195;-64
2022/08/30 09:37:30;;;;;;;;;;;25.90;92.40;;;;;;5039904;28;20203;-65
2022/08/30 09:39:59;;;;;;;;;;;26.10;92.20;;;;;;5040646;28;20194;-65
2022/08/30 09:42:28;;;;;;;;;;;26.10;92.40;;;;;;5041481;28;20217;-65
2022/08/30 09:45:09;;;;;;;;;;;26.30;91.90;;;;;;5040536;28;20702;-65
2022/08/30 09:47:40;;;;;;;;;;;26.50;91.60;;;;;;5040483;28;20213;-65
2022/08/30 09:50:10;;;;;;;;;;;26.70;91.50;;;;;;5064102;23;20205;-66
2022/08/30 09:52:42;;;;;;;;;;;26.90;91.80;;;;;;5039340;28;20607;-66
2022/08/30 09:55:15;;;;;;;;;;;27.10;91.20;;;;;;5043358;28;20293;-69
2022/08/30 09:57:45;;;;;;;;;;;27.30;90.80;;;;;;5039212;28;20190;-66
2022/08/30 10:00:15;;;;;;;;;;;27.50;91.00;;;;;;5039976;28;20588;-66
2022/08/30 10:02:48;;;;;;;;;;;27.70;90.60;;;;;;5037963;28;20219;-66
2022/08/30 10:05:20;;;;;;;;;;;27.70;89.70;;;;;;5032892;28;20256;-69
2022/08/30 10:07:52;;;;;;;;;;;27.60;89.40;;;;;;5041664;28;20204;-67
2022/08/30 10:10:24;;;;;;;;;;;27.80;89.90;;;;;;5037156;28;20199;-67
2022/08/30 10:13:00;;;;;;;;;;;27.90;87.70;;;;;;5035676;28;20190;-67
2022/08/30 10:15:31;;;;;;;;;;;27.90;87.90;;;;;;5037001;28;20244;-68
2022/08/30 10:18:03;;;;;;;;;;;28.00;85.80;;;;;;5030993;28;20602;-67
2022/08/30 10:20:33;;;;;;;;;;;28.20;86.70;;;;;;5038302;28;20476;-68
2022/08/30 10:23:05;;;;;;;;;;;28.50;86.00;;;;;;5040733;28;20202;-66
2022/08/30 10:25:35;;;;;;;;;;;28.40;83.40;;;;;;5040009;28;20994;-68
2022/08/30 10:28:04;;;;;;;;;;;28.30;84.60;;;;;;5031441;28;20435;-69
2022/08/30 10:30:34;;;;;;;;;;;28.20;84.30;;;;;;5034142;28;20206;-68
2022/08/30 10:33:05;;;;;;;;;;;28.10;83.80;;;;;;5038625;28;20264;-68
2022/08/30 10:35:37;;;;;;;;;;;28.30;84.30;;;;;;5042507;28;20198;-68
2022/08/30 10:38:07;;;;;;;;;;;28.50;82.50;;;;;;5038538;28;20183;-68
2022/08/30 10:43:24;;;;;;;;;;;29.00;84.10;;;;;;5045137;28;20327;-67
2022/08/30 10:45:55;;;;;;;;;;;29.10;83.70;;;;;;5036954;28;20773;-67
2022/08/30 10:48:27;;;;;;;;;;;29.30;83.50;;;;;;5040337;28;20667;-67
2022/08/30 10:50:56;;;;;;;;;;;29.20;82.20;;;;;;5042920;28;20228;-69
2022/08/30 10:53:28;;;;;;;;;;;29.40;83.00;;;;;;5037976;28;20191;-66
2022/08/30 10:56:00;;;;;;;;;;;29.50;82.50;;;;;;5047583;28;20206;-67
2022/08/30 10:58:30;;;;;;;;;;;29.40;82.10;;;;;;5050337;28;20202;-68
2022/08/30 11:01:05;;;;;;;;;;;29.20;80.10;;;;;;5053132;28;20190;-67
2022/08/30 11:03:48;;;;;;;;;;;29.40;80.40;;;;;;5052515;28;20226;-67
2022/08/30 11:06:19;;;;;;;;;;;29.40;80.40;;;;;;5038853;28;20190;-67
2022/08/30 11:08:57;;;;;;;;;;;29.30;79.80;;;;;;5038760;28;20205;-67
2022/08/30 11:11:30;;;;;;;;;;;29.50;79.40;;;;;;5050713;28;20206;-68
2022/08/30 11:14:01;;;;;;;;;;;29.60;77.50;;;;;;5053364;28;20237;-67
2022/08/30 11:16:36;;;;;;;;;;;30.00;79.10;;;;;;5052411;28;20194;-68
2022/08/30 11:19:13;;;;;;;;;;;30.20;78.50;;;;;;5053225;28;20194;-67
2022/08/30 11:21:43;;;;;;;;;;;30.60;79.50;;;;;;5052105;28;20190;-67
2022/08/30 11:24:12;;;;;;;;;;;30.80;77.80;;;;;;5050803;28;20210;-67
2022/08/30 11:27:11;;;;;;;;;;;30.60;77.20;;;;;;5045191;28;20552;-67
2022/08/30 11:29:41;;;;;;;;;;;30.70;77.80;;;;;;5052114;28;20202;-67
2022/08/30 11:32:22;;;;;;;;;;;30.40;76.30;;;;;;5046179;28;20203;-69
2022/08/30 11:34:59;;;;;;;;;;;30.50;76.20;;;;;;5035698;28;20204;-67
2022/08/30 11:37:32;;;;;;;;;;;31.10;76.10;;;;;;5039527;28;20195;-68
2022/08/30 11:40:00;;;;;;;;;;;31.50;75.00;;;;;;5039110;28;20201;-70
2022/08/30 11:42:32;;;;;;;;;;;31.30;73.00;;;;;;5041224;28;20572;-69
2022/08/30 11:45:19;;;;;;;;;;;31.30;74.00;;;;;;5040039;28;20201;-68
2022/08/30 11:47:49;;;;;;;;;;;31.50;73.00;;;;;;5042041;28;20528;-67
2022/08/30 11:50:20;;;;;;;;;;;31.40;72.90;;;;;;5038517;28;20214;-67
2022/08/30 11:52:53;;;;;;;;;;;31.50;72.20;;;;;;5041367;28;20605;-66
2022/08/30 11:55:42;;;;;;;;;;;31.50;73.90;;;;;;5040604;28;20695;-66
2022/08/30 11:58:16;;;;;;;;;;;31.70;73.40;;;;;;5038787;28;20629;-68
2022/08/30 12:00:46;;;;;;;;;;;31.80;72.40;;;;;;5042076;28;20205;-68
2022/08/30 12:03:28;;;;;;;;;;;31.70;73.00;;;;;;5042121;28;20207;-67
2022/08/30 12:06:00;;;;;;;;;;;31.60;72.50;;;;;;5039107;28;20710;-67
2022/08/30 12:08:47;;;;;;;;;;;31.70;72.00;;;;;;5040710;28;20202;-68
2022/08/30 12:11:33;;;;;;;;;;;32.10;71.70;;;;;;5040523;28;20205;-67
2022/08/30 12:14:01;;;;;;;;;;;32.40;71.80;;;;;;5040998;28;20197;-65
2022/08/30 12:16:35;;;;;;;;;;;32.80;71.30;;;;;;5051925;28;20164;-67
2022/08/30 12:19:10;;;;;;;;;;;32.60;70.20;;;;;;5042985;28;20240;-66
2022/08/30 12:21:41;;;;;;;;;;;32.60;70.90;;;;;;5039142;28;20191;-66
2022/08/30 12:24:17;;;;;;;;;;;32.60;69.70;;;;;;5048402;28;21364;-67
2022/08/30 12:26:46;;;;;;;;;;;32.50;70.50;;;;;;5051878;28;20235;-67
2022/08/30 12:29:16;;;;;;;;;;;32.70;69.70;;;;;;5046046;28;20206;-66
2022/08/30 12:31:46;;;;;;;;;;;33.00;69.20;;;;;;5040522;28;20198;-67
2022/08/30 12:34:25;;;;;;;;;;;33.20;68.80;;;;;;5040132;28;20675;-66
2022/08/30 12:36:57;;;;;;;;;;;33.20;68.30;;;;;;5040777;28;20194;-66
2022/08/30 12:39:26;;;;;;;;;;;33.30;68.80;;;;;;5037147;28;20209;-66
2022/08/30 12:41:54;;;;;;;;;;;33.30;68.70;;;;;;5040847;28;20186;-68
2022/08/30 12:44:23;;;;;;;;;;;33.30;68.50;;;;;;5035606;28;20806;-68
2022/08/30 12:46:53;;;;;;;;;;;33.40;67.40;;;;;;5043257;28;20193;-66
2022/08/30 12:49:27;;;;;;;;;;;33.40;67.20;;;;;;5040851;28;20205;-68
2022/08/30 12:52:14;;;;;;;;;;;33.60;66.60;;;;;;5040603;28;20181;-66
2022/08/30 12:54:43;;;;;;;;;;;33.60;66.70;;;;;;5040903;28;20457;-65
2022/08/30 12:57:11;;;;;;;;;;;33.70;66.60;;;;;;5042202;28;20638;-65
2022/08/30 12:59:59;;;;;;;;;;;34.50;66.40;;;;;;5038737;28;20186;-65
2022/08/30 13:02:41;;;;;;;;;;;34.90;65.00;;;;;;5042850;28;20210;-65
2022/08/30 13:05:24;;;;;;;;;;;35.00;64.70;;;;;;5041261;28;20177;-65
2022/08/30 13:08:07;;;;;;;;;;;35.00;64.50;;;;;;5043153;28;20924;-65
2022/08/30 13:10:35;;;;;;;;;;;34.90;64.40;;;;;;5051364;28;20185;-65
2022/08/30 13:13:04;;;;;;;;;;;35.10;65.00;;;;;;5046809;28;20196;-65
2022/08/30 13:15:33;;;;;;;;;;;35.80;63.80;;;;;;5041325;28;20258;-65
2022/08/30 13:18:16;;;;;;;;;;;36.30;63.20;;;;;;5041407;28;20188;-64
2022/08/30 13:21:08;;;;;;;;;;;36.50;62.40;;;;;;5039203;28;20200;-66
2022/08/30 13:23:37;;;;;;;;;;;36.40;61.70;;;;;;5042205;28;20190;-65
2022/08/30 13:26:06;;;;;;;;;;;35.80;62.60;;;;;;5041339;28;20209;-64
2022/08/30 13:28:42;;;;;;;;;;;35.40;62.10;;;;;;5039815;28;20198;-64
2022/08/30 13:31:15;;;;;;;;;;;34.90;62.00;;;;;;5041004;28;20292;-65
2022/08/30 13:33:44;;;;;;;;;;;34.90;61.80;;;;;;5044490;28;20186;-64
2022/08/30 13:36:13;;;;;;;;;;;35.20;62.70;;;;;;5037924;28;20180;-65
2022/08/30 13:38:48;;;;;;;;;;;35.30;61.80;;;;;;5039928;28;21217;-65
2022/08/30 13:41:16;;;;;;;;;;;35.10;61.50;;;;;;5037728;28;20268;-64
2022/08/30 13:43:44;;;;;;;;;;;34.60;61.10;;;;;;5041201;28;20195;-65
2022/08/30 13:46:32;;;;;;;;;;;34.80;62.50;;;;;;5038884;28;20927;-65
2022/08/30 13:49:03;;;;;;;;;;;34.50;61.30;;;;;;5040467;28;20278;-65
2022/08/30 13:51:31;;;;;;;;;;;34.40;60.70;;;;;;5048635;28;20196;-64
2022/08/30 13:54:01;;;;;;;;;;;34.20;61.70;;;;;;5039023;28;20199;-64
2022/08/30 13:56:30;;;;;;;;;;;33.90;61.20;;;;;;5040867;28;20670;-65
2022/08/30 13:58:58;;;;;;;;;;;34.20;60.50;;;;;;5035929;28;20237;-65
2022/08/30 14:01:29;;;;;;;;;;;34.10;60.30;;;;;;5040035;28;20237;-65
2022/08/30 14:04:17;;;;;;;;;;;34.80;59.90;;;;;;5039844;28;20688;-65
2022/08/30 14:06:45;;;;;;;;;;;35.40;59.40;;;;;;5042306;28;20191;-64
2022/08/30 14:09:34;;;;;;;;;;;36.10;59.70;;;;;;5044552;28;20289;-64
2022/08/30 14:12:02;;;;;;;;;;;36.70;58.90;;;;;;5046633;28;20191;-65
2022/08/30 14:14:30;;;;;;;;;;;36.50;58.70;;;;;;5054420;28;20185;-65
2022/08/30 14:17:10;;;;;;;;;;;35.60;58.90;;;;;;5046259;28;20176;-64
2022/08/30 14:19:39;;;;;;;;;;;34.70;59.60;;;;;;5041842;28;20619;-64
2022/08/30 14:22:07;;;;;;;;;;;34.10;59.80;;;;;;5040687;28;25158;-64
2022/08/30 14:24:36;;;;;;;;;;;33.60;60.80;;;;;;5036792;28;20170;-64
2022/08/30 14:27:04;;;;;;;;;;;32.90;61.10;;;;;;5036906;28;20200;-64
2022/08/30 14:29:31;;;;;;;;;;;33.00;60.90;;;;;;5040741;28;20206;-64
2022/08/30 14:32:02;;;;;;;;;;;33.40;61.40;;;;;;5042229;28;20628;-64
2022/08/30 14:34:29;;;;;;;;;;;33.00;61.20;;;;;;5045024;28;20198;-64
2022/08/30 14:36:59;;;;;;;;;;;33.20;61.40;;;;;;5049142;28;20170;-64
2022/08/30 14:39:27;;;;;;;;;;;33.20;60.70;;;;;;5044090;28;20194;-64
2022/08/30 14:41:56;;;;;;;;;;;33.10;62.70;;;;;;5040030;28;20186;-64
2022/08/30 14:44:30;;;;;;;;;;;33.70;60.80;;;;;;5036969;28;20177;-64